sensor_id;sensor_type;location;lat;lon;timestamp;P1;durP1;ratioP1;P2;durP2;ratioP2
9080;SDS011;13509;50.760;6.080;2022-08-06T00:02:02;3.23;;;1.80;;
9080;SDS011;13509;50.760;6.080;2022-08-06T00:04:31;5.27;;;1.60;;
9080;SDS011;13509;50.760;6.080;2022-08-06T00:07:00;3.23;;;2.03;;
9080;SDS011;13509;50.760;6.080;2022-08-06T00:09:28;2.17;;;1.40;;
9080;SDS011;13509;50.760;6.080;2022-08-06T00:12:17;2.03;;;1.30;;
9080;SDS011;13509;50.760;6.080;2022-08-06T00:14:56;3.43;;;2.00;;
9080;SDS011;13509;50.760;6.080;2022-08-06T00:17:24;3.73;;;1.50;;
9080;SDS011;13509;50.760;6.080;2022-08-06T00:19:58;2.33;;;1.77;;
9080;SDS011;13509;50.760;6.080;2022-08-06T00:22:29;5.60;;;1.93;;
9080;SDS011;13509;50.760;6.080;2022-08-06T00:24:58;3.77;;;1.87;;
9080;SDS011;13509;50.760;6.080;2022-08-06T00:27:27;3.20;;;1.40;;
9080;SDS011;13509;50.760;6.080;2022-08-06T00:30:06;2.53;;;1.80;;
9080;SDS011;13509;50.760;6.080;2022-08-06T00:32:43;3.40;;;1.50;;
9080;SDS011;13509;50.760;6.080;2022-08-06T00:35:18;3.83;;;1.60;;
9080;SDS011;13509;50.760;6.080;2022-08-06T00:37:53;5.40;;;1.87;;
9080;SDS011;13509;50.760;6.080;2022-08-06T00:40:24;7.93;;;2.27;;
9080;SDS011;13509;50.760;6.080;2022-08-06T00:42:54;5.50;;;1.90;;
9080;SDS011;13509;50.760;6.080;2022-08-06T00:45:27;6.43;;;1.77;;
9080;SDS011;13509;50.760;6.080;2022-08-06T00:47:57;7.70;;;1.73;;
9080;SDS011;13509;50.760;6.080;2022-08-06T00:50:29;6.73;;;1.70;;
9080;SDS011;13509;50.760;6.080;2022-08-06T00:52:57;7.07;;;1.77;;
9080;SDS011;13509;50.760;6.080;2022-08-06T00:55:28;4.17;;;1.40;;
9080;SDS011;13509;50.760;6.080;2022-08-06T00:58:01;2.83;;;1.60;;
9080;SDS011;13509;50.760;6.080;2022-08-06T01:17:33;3.33;;;1.60;;
9080;SDS011;13509;50.760;6.080;2022-08-06T01:20:08;5.47;;;1.80;;
9080;SDS011;13509;50.760;6.080;2022-08-06T01:23:06;3.87;;;1.50;;
9080;SDS011;13509;50.760;6.080;2022-08-06T01:25:46;2.93;;;1.60;;
9080;SDS011;13509;50.760;6.080;2022-08-06T01:28:24;4.57;;;1.90;;
9080;SDS011;13509;50.760;6.080;2022-08-06T01:30:57;5.70;;;1.90;;
9080;SDS011;13509;50.760;6.080;2022-08-06T01:33:30;3.43;;;1.77;;
9080;SDS011;13509;50.760;6.080;2022-08-06T01:36:05;6.40;;;2.27;;
9080;SDS011;13509;50.760;6.080;2022-08-06T01:38:37;6.20;;;1.87;;
9080;SDS011;13509;50.760;6.080;2022-08-06T01:41:11;3.53;;;2.00;;
9080;SDS011;13509;50.760;6.080;2022-08-06T01:44:23;3.37;;;2.00;;
9080;SDS011;13509;50.760;6.080;2022-08-06T01:46:55;7.10;;;2.07;;
9080;SDS011;13509;50.760;6.080;2022-08-06T01:49:25;4.40;;;1.90;;
9080;SDS011;13509;50.760;6.080;2022-08-06T01:52:14;5.00;;;1.90;;
9080;SDS011;13509;50.760;6.080;2022-08-06T01:54:54;4.70;;;2.37;;
9080;SDS011;13509;50.760;6.080;2022-08-06T01:57:24;2.87;;;1.80;;
9080;SDS011;13509;50.760;6.080;2022-08-06T02:00:16;4.90;;;2.07;;
9080;SDS011;13509;50.760;6.080;2022-08-06T02:02:44;2.67;;;2.00;;
9080;SDS011;13509;50.760;6.080;2022-08-06T02:05:16;4.50;;;2.27;;
9080;SDS011;13509;50.760;6.080;2022-08-06T02:07:47;5.47;;;2.07;;
9080;SDS011;13509;50.760;6.080;2022-08-06T02:10:36;3.43;;;1.77;;
9080;SDS011;13509;50.760;6.080;2022-08-06T02:13:06;4.77;;;1.80;;
9080;SDS011;13509;50.760;6.080;2022-08-06T02:15:40;5.33;;;1.90;;
9080;SDS011;13509;50.760;6.080;2022-08-06T02:18:25;2.97;;;2.07;;
9080;SDS011;13509;50.760;6.080;2022-08-06T02:21:01;4.77;;;1.70;;
9080;SDS011;13509;50.760;6.080;2022-08-06T02:23:45;4.13;;;1.57;;
9080;SDS011;13509;50.760;6.080;2022-08-06T02:26:15;6.43;;;1.70;;
9080;SDS011;13509;50.760;6.080;2022-08-06T02:28:45;2.83;;;1.60;;
9080;SDS011;13509;50.760;6.080;2022-08-06T02:31:17;4.03;;;2.07;;
9080;SDS011;13509;50.760;6.080;2022-08-06T02:33:48;3.20;;;1.70;;
9080;SDS011;13509;50.760;6.080;2022-08-06T02:36:39;9.10;;;2.00;;
9080;SDS011;13509;50.760;6.080;2022-08-06T02:39:19;5.87;;;1.87;;
9080;SDS011;13509;50.760;6.080;2022-08-06T02:42:07;5.53;;;2.07;;
9080;SDS011;13509;50.760;6.080;2022-08-06T02:44:48;6.80;;;1.90;;
9080;SDS011;13509;50.760;6.080;2022-08-06T02:47:22;5.37;;;2.17;;
9080;SDS011;13509;50.760;6.080;2022-08-06T02:50:13;3.33;;;2.10;;
9080;SDS011;13509;50.760;6.080;2022-08-06T02:52:45;4.30;;;2.00;;
9080;SDS011;13509;50.760;6.080;2022-08-06T02:55:25;7.67;;;2.10;;
9080;SDS011;13509;50.760;6.080;2022-08-06T02:58:01;3.37;;;1.80;;
9080;SDS011;13509;50.760;6.080;2022-08-06T03:00:33;3.67;;;2.30;;
9080;SDS011;13509;50.760;6.080;2022-08-06T03:03:05;4.60;;;2.50;;
9080;SDS011;13509;50.760;6.080;2022-08-06T03:05:46;6.83;;;2.20;;
9080;SDS011;13509;50.760;6.080;2022-08-06T03:08:22;4.50;;;1.90;;
9080;SDS011;13509;50.760;6.080;2022-08-06T03:10:53;4.97;;;2.33;;
9080;SDS011;13509;50.760;6.080;2022-08-06T03:13:23;6.80;;;2.50;;
9080;SDS011;13509;50.760;6.080;2022-08-06T03:16:01;3.67;;;1.80;;
9080;SDS011;13509;50.760;6.080;2022-08-06T03:18:50;9.00;;;2.07;;
9080;SDS011;13509;50.760;6.080;2022-08-06T03:21:39;5.40;;;2.33;;
9080;SDS011;13509;50.760;6.080;2022-08-06T03:24:21;4.00;;;2.00;;
9080;SDS011;13509;50.760;6.080;2022-08-06T03:26:52;6.70;;;2.10;;
9080;SDS011;13509;50.760;6.080;2022-08-06T03:29:21;6.37;;;2.37;;
9080;SDS011;13509;50.760;6.080;2022-08-06T03:31:49;4.07;;;2.10;;
9080;SDS011;13509;50.760;6.080;2022-08-06T03:34:25;4.97;;;2.10;;
9080;SDS011;13509;50.760;6.080;2022-08-06T03:36:54;6.33;;;2.10;;
9080;SDS011;13509;50.760;6.080;2022-08-06T03:39:26;3.07;;;1.90;;
9080;SDS011;13509;50.760;6.080;2022-08-06T03:41:55;5.77;;;2.40;;
9080;SDS011;13509;50.760;6.080;2022-08-06T03:44:33;4.13;;;2.30;;
9080;SDS011;13509;50.760;6.080;2022-08-06T03:47:05;4.40;;;2.00;;
9080;SDS011;13509;50.760;6.080;2022-08-06T03:49:36;3.13;;;2.10;;
9080;SDS011;13509;50.760;6.080;2022-08-06T03:52:07;7.40;;;2.20;;
9080;SDS011;13509;50.760;6.080;2022-08-06T03:54:40;3.93;;;2.23;;
9080;SDS011;13509;50.760;6.080;2022-08-06T03:57:10;3.30;;;2.17;;
9080;SDS011;13509;50.760;6.080;2022-08-06T03:59:41;8.80;;;2.33;;
9080;SDS011;13509;50.760;6.080;2022-08-06T04:02:27;5.97;;;1.93;;
9080;SDS011;13509;50.760;6.080;2022-08-06T04:05:13;3.90;;;1.80;;
9080;SDS011;13509;50.760;6.080;2022-08-06T04:07:46;5.63;;;2.60;;
9080;SDS011;13509;50.760;6.080;2022-08-06T04:10:22;4.27;;;2.23;;
9080;SDS011;13509;50.760;6.080;2022-08-06T04:13:00;6.63;;;2.57;;
9080;SDS011;13509;50.760;6.080;2022-08-06T04:15:49;3.67;;;2.40;;
9080;SDS011;13509;50.760;6.080;2022-08-06T04:18:19;6.37;;;2.10;;
9080;SDS011;13509;50.760;6.080;2022-08-06T04:20:50;6.60;;;2.50;;
9080;SDS011;13509;50.760;6.080;2022-08-06T04:23:39;8.57;;;2.70;;
9080;SDS011;13509;50.760;6.080;2022-08-06T04:26:11;5.97;;;2.27;;
9080;SDS011;13509;50.760;6.080;2022-08-06T04:28:42;3.60;;;2.40;;
9080;SDS011;13509;50.760;6.080;2022-08-06T04:31:23;5.67;;;2.43;;
9080;SDS011;13509;50.760;6.080;2022-08-06T04:34:13;6.13;;;2.10;;
9080;SDS011;13509;50.760;6.080;2022-08-06T04:36:43;3.93;;;2.20;;
9080;SDS011;13509;50.760;6.080;2022-08-06T04:39:19;6.13;;;2.30;;
9080;SDS011;13509;50.760;6.080;2022-08-06T04:42:04;7.33;;;2.50;;
9080;SDS011;13509;50.760;6.080;2022-08-06T04:44:34;5.63;;;2.63;;
9080;SDS011;13509;50.760;6.080;2022-08-06T04:47:10;6.17;;;2.40;;
9080;SDS011;13509;50.760;6.080;2022-08-06T04:49:45;7.30;;;2.10;;
9080;SDS011;13509;50.760;6.080;2022-08-06T04:52:31;8.90;;;2.47;;
9080;SDS011;13509;50.760;6.080;2022-08-06T04:55:17;2.90;;;2.27;;
9080;SDS011;13509;50.760;6.080;2022-08-06T04:57:49;2.13;;;1.90;;
9080;SDS011;13509;50.760;6.080;2022-08-06T05:00:29;3.07;;;2.10;;
9080;SDS011;13509;50.760;6.080;2022-08-06T05:03:17;2.43;;;2.23;;
9080;SDS011;13509;50.760;6.080;2022-08-06T05:06:07;3.13;;;2.10;;
9080;SDS011;13509;50.760;6.080;2022-08-06T05:08:40;6.50;;;2.10;;
9080;SDS011;13509;50.760;6.080;2022-08-06T05:11:19;4.20;;;1.90;;
9080;SDS011;13509;50.760;6.080;2022-08-06T05:13:50;4.87;;;1.90;;
9080;SDS011;13509;50.760;6.080;2022-08-06T05:16:20;3.50;;;2.23;;
9080;SDS011;13509;50.760;6.080;2022-08-06T05:18:51;3.47;;;2.10;;
9080;SDS011;13509;50.760;6.080;2022-08-06T05:21:41;6.03;;;2.23;;
9080;SDS011;13509;50.760;6.080;2022-08-06T05:24:31;3.93;;;2.10;;
9080;SDS011;13509;50.760;6.080;2022-08-06T05:27:16;2.47;;;1.80;;
9080;SDS011;13509;50.760;6.080;2022-08-06T05:29:44;3.27;;;2.07;;
9080;SDS011;13509;50.760;6.080;2022-08-06T05:32:20;7.97;;;2.10;;
9080;SDS011;13509;50.760;6.080;2022-08-06T05:34:50;6.50;;;1.90;;
9080;SDS011;13509;50.760;6.080;2022-08-06T05:37:19;4.53;;;1.70;;
9080;SDS011;13509;50.760;6.080;2022-08-06T05:40:09;3.67;;;1.80;;
9080;SDS011;13509;50.760;6.080;2022-08-06T05:42:37;5.73;;;2.30;;
9080;SDS011;13509;50.760;6.080;2022-08-06T05:45:06;5.50;;;2.10;;
9080;SDS011;13509;50.760;6.080;2022-08-06T05:47:37;6.20;;;2.27;;
9080;SDS011;13509;50.760;6.080;2022-08-06T05:50:21;6.90;;;2.63;;
9080;SDS011;13509;50.760;6.080;2022-08-06T05:52:53;3.70;;;2.10;;
9080;SDS011;13509;50.760;6.080;2022-08-06T05:55:25;8.33;;;2.50;;
9080;SDS011;13509;50.760;6.080;2022-08-06T05:58:04;4.13;;;2.40;;
9080;SDS011;13509;50.760;6.080;2022-08-06T06:00:35;6.17;;;2.70;;
9080;SDS011;13509;50.760;6.080;2022-08-06T06:03:11;6.03;;;2.70;;
9080;SDS011;13509;50.760;6.080;2022-08-06T06:05:54;13.50;;;3.13;;
9080;SDS011;13509;50.760;6.080;2022-08-06T06:08:36;5.10;;;2.07;;
9080;SDS011;13509;50.760;6.080;2022-08-06T06:11:25;3.93;;;1.83;;
9080;SDS011;13509;50.760;6.080;2022-08-06T06:14:25;3.57;;;1.80;;
9080;SDS011;13509;50.760;6.080;2022-08-06T06:17:07;3.40;;;1.63;;
9080;SDS011;13509;50.760;6.080;2022-08-06T06:19:38;2.97;;;1.83;;
9080;SDS011;13509;50.760;6.080;2022-08-06T06:22:19;9.83;;;2.30;;
9080;SDS011;13509;50.760;6.080;2022-08-06T06:24:54;6.90;;;2.00;;
9080;SDS011;13509;50.760;6.080;2022-08-06T06:27:27;6.30;;;2.10;;
9080;SDS011;13509;50.760;6.080;2022-08-06T06:30:13;7.15;;;2.13;;
9080;SDS011;13509;50.760;6.080;2022-08-06T06:33:03;6.57;;;1.70;;
9080;SDS011;13509;50.760;6.080;2022-08-06T06:35:39;4.40;;;1.85;;
9080;SDS011;13509;50.760;6.080;2022-08-06T06:38:23;3.78;;;1.65;;
9080;SDS011;13509;50.760;6.080;2022-08-06T06:40:56;5.38;;;1.80;;
9080;SDS011;13509;50.760;6.080;2022-08-06T06:43:48;5.25;;;1.80;;
9080;SDS011;13509;50.760;6.080;2022-08-06T06:46:20;6.53;;;1.80;;
9080;SDS011;13509;50.760;6.080;2022-08-06T06:49:06;3.67;;;1.85;;
9080;SDS011;13509;50.760;6.080;2022-08-06T06:51:56;4.65;;;1.75;;
9080;SDS011;13509;50.760;6.080;2022-08-06T06:54:35;6.50;;;1.75;;
9080;SDS011;13509;50.760;6.080;2022-08-06T06:57:05;5.78;;;1.73;;
9080;SDS011;13509;50.760;6.080;2022-08-06T06:59:37;6.75;;;1.98;;
9080;SDS011;13509;50.760;6.080;2022-08-06T07:02:27;4.65;;;1.75;;
9080;SDS011;13509;50.760;6.080;2022-08-06T07:04:55;3.65;;;1.73;;
9080;SDS011;13509;50.760;6.080;2022-08-06T07:07:28;3.13;;;1.50;;
9080;SDS011;13509;50.760;6.080;2022-08-06T07:09:58;4.13;;;1.90;;
9080;SDS011;13509;50.760;6.080;2022-08-06T07:12:28;4.45;;;1.60;;
9080;SDS011;13509;50.760;6.080;2022-08-06T07:15:01;6.28;;;1.70;;
9080;SDS011;13509;50.760;6.080;2022-08-06T07:17:31;4.75;;;1.60;;
9080;SDS011;13509;50.760;6.080;2022-08-06T07:20:15;5.10;;;1.80;;
9080;SDS011;13509;50.760;6.080;2022-08-06T07:22:45;3.80;;;1.60;;
9080;SDS011;13509;50.760;6.080;2022-08-06T07:25:36;7.90;;;1.40;;
9080;SDS011;13509;50.760;6.080;2022-08-06T07:28:20;4.72;;;1.50;;
9080;SDS011;13509;50.760;6.080;2022-08-06T07:30:55;3.25;;;1.20;;
9080;SDS011;13509;50.760;6.080;2022-08-06T07:33:32;6.03;;;1.50;;
9080;SDS011;13509;50.760;6.080;2022-08-06T07:36:24;4.82;;;1.65;;
9080;SDS011;13509;50.760;6.080;2022-08-06T07:38:55;3.60;;;1.33;;
9080;SDS011;13509;50.760;6.080;2022-08-06T07:41:26;2.03;;;1.27;;
9080;SDS011;13509;50.760;6.080;2022-08-06T07:44:14;4.93;;;1.70;;
9080;SDS011;13509;50.760;6.080;2022-08-06T07:46:50;3.80;;;1.40;;
9080;SDS011;13509;50.760;6.080;2022-08-06T07:49:21;3.53;;;1.27;;
9080;SDS011;13509;50.760;6.080;2022-08-06T07:52:12;3.78;;;1.58;;
9080;SDS011;13509;50.760;6.080;2022-08-06T07:54:43;4.57;;;1.40;;
9080;SDS011;13509;50.760;6.080;2022-08-06T07:57:12;3.67;;;1.45;;
9080;SDS011;13509;50.760;6.080;2022-08-06T07:59:50;1.83;;;1.00;;
9080;SDS011;13509;50.760;6.080;2022-08-06T08:02:22;4.25;;;1.00;;
9080;SDS011;13509;50.760;6.080;2022-08-06T08:04:55;3.38;;;1.15;;
9080;SDS011;13509;50.760;6.080;2022-08-06T08:07:42;3.92;;;1.17;;
9080;SDS011;13509;50.760;6.080;2022-08-06T08:10:23;2.92;;;1.30;;
9080;SDS011;13509;50.760;6.080;2022-08-06T08:12:54;4.38;;;1.17;;
9080;SDS011;13509;50.760;6.080;2022-08-06T08:15:28;6.53;;;1.75;;
9080;SDS011;13509;50.760;6.080;2022-08-06T08:18:09;2.95;;;1.13;;
9080;SDS011;13509;50.760;6.080;2022-08-06T08:20:38;3.70;;;1.13;;
9080;SDS011;13509;50.760;6.080;2022-08-06T08:23:18;3.47;;;1.50;;
9080;SDS011;13509;50.760;6.080;2022-08-06T08:26:00;3.30;;;1.10;;
9080;SDS011;13509;50.760;6.080;2022-08-06T08:28:28;4.80;;;1.35;;
9080;SDS011;13509;50.760;6.080;2022-08-06T08:30:58;3.65;;;1.30;;
9080;SDS011;13509;50.760;6.080;2022-08-06T08:33:47;3.90;;;1.20;;
9080;SDS011;13509;50.760;6.080;2022-08-06T08:36:16;4.25;;;1.40;;
9080;SDS011;13509;50.760;6.080;2022-08-06T08:38:55;4.67;;;1.37;;
9080;SDS011;13509;50.760;6.080;2022-08-06T08:41:26;4.50;;;1.10;;
9080;SDS011;13509;50.760;6.080;2022-08-06T08:44:17;3.35;;;1.60;;
9080;SDS011;13509;50.760;6.080;2022-08-06T08:46:52;4.97;;;1.55;;
9080;SDS011;13509;50.760;6.080;2022-08-06T08:49:27;4.75;;;1.40;;
9080;SDS011;13509;50.760;6.080;2022-08-06T08:51:56;3.97;;;1.55;;
9080;SDS011;13509;50.760;6.080;2022-08-06T08:54:26;3.53;;;1.00;;
9080;SDS011;13509;50.760;6.080;2022-08-06T08:56:55;6.63;;;1.38;;
9080;SDS011;13509;50.760;6.080;2022-08-06T08:59:44;7.25;;;1.50;;
9080;SDS011;13509;50.760;6.080;2022-08-06T09:02:26;4.70;;;1.20;;
9080;SDS011;13509;50.760;6.080;2022-08-06T09:04:57;4.28;;;1.40;;
9080;SDS011;13509;50.760;6.080;2022-08-06T09:07:26;6.47;;;1.40;;
9080;SDS011;13509;50.760;6.080;2022-08-06T09:10:02;4.82;;;1.35;;
9080;SDS011;13509;50.760;6.080;2022-08-06T09:12:31;4.22;;;1.25;;
9080;SDS011;13509;50.760;6.080;2022-08-06T09:15:12;7.70;;;1.20;;
9080;SDS011;13509;50.760;6.080;2022-08-06T09:17:43;3.90;;;1.05;;
9080;SDS011;13509;50.760;6.080;2022-08-06T09:20:35;2.67;;;1.13;;
9080;SDS011;13509;50.760;6.080;2022-08-06T09:23:11;4.80;;;1.25;;
9080;SDS011;13509;50.760;6.080;2022-08-06T09:25:45;4.53;;;1.23;;
9080;SDS011;13509;50.760;6.080;2022-08-06T09:28:27;3.00;;;1.10;;
9080;SDS011;13509;50.760;6.080;2022-08-06T09:30:57;2.35;;;1.00;;
9080;SDS011;13509;50.760;6.080;2022-08-06T09:33:26;3.22;;;1.10;;
9080;SDS011;13509;50.760;6.080;2022-08-06T09:36:16;2.60;;;0.90;;
9080;SDS011;13509;50.760;6.080;2022-08-06T09:38:57;3.53;;;1.10;;
9080;SDS011;13509;50.760;6.080;2022-08-06T09:41:45;2.83;;;1.05;;
9080;SDS011;13509;50.760;6.080;2022-08-06T09:44:13;3.15;;;1.00;;
9080;SDS011;13509;50.760;6.080;2022-08-06T09:47:02;2.67;;;0.80;;
9080;SDS011;13509;50.760;6.080;2022-08-06T09:49:44;3.15;;;0.90;;
9080;SDS011;13509;50.760;6.080;2022-08-06T09:52:27;5.10;;;1.00;;
9080;SDS011;13509;50.760;6.080;2022-08-06T09:54:56;2.33;;;0.80;;
9080;SDS011;13509;50.760;6.080;2022-08-06T09:57:27;3.25;;;1.00;;
9080;SDS011;13509;50.760;6.080;2022-08-06T10:00:01;3.63;;;1.05;;
9080;SDS011;13509;50.760;6.080;2022-08-06T10:02:32;3.75;;;0.93;;
9080;SDS011;13509;50.760;6.080;2022-08-06T10:05:07;2.90;;;0.82;;
9080;SDS011;13509;50.760;6.080;2022-08-06T10:07:47;2.50;;;1.00;;
9080;SDS011;13509;50.760;6.080;2022-08-06T10:10:18;2.67;;;1.13;;
9080;SDS011;13509;50.760;6.080;2022-08-06T10:13:10;2.17;;;0.83;;
9080;SDS011;13509;50.760;6.080;2022-08-06T10:15:39;3.20;;;0.90;;
9080;SDS011;13509;50.760;6.080;2022-08-06T10:18:31;1.63;;;0.90;;
9080;SDS011;13509;50.760;6.080;2022-08-06T10:21:20;3.03;;;1.10;;
9080;SDS011;13509;50.760;6.080;2022-08-06T10:23:54;4.23;;;1.20;;
9080;SDS011;13509;50.760;6.080;2022-08-06T10:26:24;0.83;;;0.80;;
9080;SDS011;13509;50.760;6.080;2022-08-06T10:29:00;5.17;;;0.93;;
9080;SDS011;13509;50.760;6.080;2022-08-06T10:31:29;2.77;;;0.97;;
9080;SDS011;13509;50.760;6.080;2022-08-06T10:34:00;2.20;;;0.97;;
9080;SDS011;13509;50.760;6.080;2022-08-06T10:36:30;3.07;;;0.87;;
9080;SDS011;13509;50.760;6.080;2022-08-06T10:39:02;2.33;;;0.87;;
9080;SDS011;13509;50.760;6.080;2022-08-06T10:41:50;3.20;;;1.13;;
9080;SDS011;13509;50.760;6.080;2022-08-06T10:44:31;4.90;;;1.20;;
9080;SDS011;13509;50.760;6.080;2022-08-06T10:47:07;2.83;;;1.20;;
9080;SDS011;13509;50.760;6.080;2022-08-06T10:49:43;3.73;;;0.90;;
9080;SDS011;13509;50.760;6.080;2022-08-06T10:52:33;4.20;;;1.13;;
9080;SDS011;13509;50.760;6.080;2022-08-06T10:55:05;2.50;;;1.00;;
9080;SDS011;13509;50.760;6.080;2022-08-06T10:57:34;1.13;;;0.70;;
9080;SDS011;13509;50.760;6.080;2022-08-06T11:00:03;2.53;;;1.17;;
9080;SDS011;13509;50.760;6.080;2022-08-06T11:02:32;2.57;;;0.93;;
9080;SDS011;13509;50.760;6.080;2022-08-06T11:05:04;1.13;;;0.73;;
9080;SDS011;13509;50.760;6.080;2022-08-06T11:07:58;1.50;;;0.60;;
9080;SDS011;13509;50.760;6.080;2022-08-06T11:13:28;2.40;;;0.80;;
9080;SDS011;13509;50.760;6.080;2022-08-06T11:16:23;1.93;;;0.60;;
9080;SDS011;13509;50.760;6.080;2022-08-06T11:18:58;1.97;;;0.97;;
9080;SDS011;13509;50.760;6.080;2022-08-06T11:21:36;1.07;;;0.80;;
9080;SDS011;13509;50.760;6.080;2022-08-06T11:24:25;3.00;;;1.00;;
9080;SDS011;13509;50.760;6.080;2022-08-06T11:26:54;2.03;;;0.83;;
9080;SDS011;13509;50.760;6.080;2022-08-06T11:29:48;1.23;;;0.80;;
9080;SDS011;13509;50.760;6.080;2022-08-06T11:32:43;0.80;;;0.77;;
9080;SDS011;13509;50.760;6.080;2022-08-06T11:38:08;2.40;;;0.90;;
9080;SDS011;13509;50.760;6.080;2022-08-06T11:40:57;2.47;;;0.97;;
9080;SDS011;13509;50.760;6.080;2022-08-06T11:43:48;3.93;;;0.60;;
9080;SDS011;13509;50.760;6.080;2022-08-06T11:46:31;2.23;;;1.03;;
9080;SDS011;13509;50.760;6.080;2022-08-06T11:49:11;0.53;;;0.53;;
9080;SDS011;13509;50.760;6.080;2022-08-06T11:51:45;1.80;;;0.60;;
9080;SDS011;13509;50.760;6.080;2022-08-06T11:54:25;1.73;;;0.80;;
9080;SDS011;13509;50.760;6.080;2022-08-06T12:00:03;2.13;;;0.73;;
9080;SDS011;13509;50.760;6.080;2022-08-06T12:02:46;2.17;;;0.60;;
9080;SDS011;13509;50.760;6.080;2022-08-06T12:05:37;2.63;;;0.80;;
9080;SDS011;13509;50.760;6.080;2022-08-06T12:08:24;2.57;;;0.80;;
9080;SDS011;13509;50.760;6.080;2022-08-06T12:11:27;1.53;;;1.07;;
9080;SDS011;13509;50.760;6.080;2022-08-06T12:14:03;1.10;;;0.67;;
9080;SDS011;13509;50.760;6.080;2022-08-06T12:16:51;3.17;;;0.70;;
9080;SDS011;13509;50.760;6.080;2022-08-06T12:19:29;2.20;;;0.80;;
9080;SDS011;13509;50.760;6.080;2022-08-06T12:21:58;1.47;;;0.67;;
9080;SDS011;13509;50.760;6.080;2022-08-06T12:24:28;0.93;;;0.60;;
9080;SDS011;13509;50.760;6.080;2022-08-06T12:27:18;2.53;;;1.17;;
9080;SDS011;13509;50.760;6.080;2022-08-06T12:29:53;1.10;;;1.00;;
9080;SDS011;13509;50.760;6.080;2022-08-06T12:32:25;1.97;;;0.70;;
9080;SDS011;13509;50.760;6.080;2022-08-06T12:34:57;1.30;;;0.70;;
9080;SDS011;13509;50.760;6.080;2022-08-06T12:37:33;2.07;;;0.90;;
9080;SDS011;13509;50.760;6.080;2022-08-06T12:40:13;3.07;;;1.00;;
9080;SDS011;13509;50.760;6.080;2022-08-06T12:42:54;2.27;;;0.73;;
9080;SDS011;13509;50.760;6.080;2022-08-06T12:45:29;0.90;;;0.73;;
9080;SDS011;13509;50.760;6.080;2022-08-06T12:48:17;1.50;;;0.93;;
9080;SDS011;13509;50.760;6.080;2022-08-06T12:50:47;0.70;;;0.70;;
9080;SDS011;13509;50.760;6.080;2022-08-06T12:53:16;1.00;;;0.80;;
9080;SDS011;13509;50.760;6.080;2022-08-06T12:55:47;1.50;;;0.67;;
9080;SDS011;13509;50.760;6.080;2022-08-06T12:58:24;1.97;;;0.90;;
9080;SDS011;13509;50.760;6.080;2022-08-06T13:01:08;2.60;;;0.80;;
9080;SDS011;13509;50.760;6.080;2022-08-06T13:03:42;0.90;;;0.70;;
9080;SDS011;13509;50.760;6.080;2022-08-06T13:06:29;2.33;;;0.80;;
9080;SDS011;13509;50.760;6.080;2022-08-06T13:09:02;2.40;;;1.00;;
9080;SDS011;13509;50.760;6.080;2022-08-06T13:11:33;1.23;;;0.80;;
9080;SDS011;13509;50.760;6.080;2022-08-06T13:14:07;4.30;;;1.00;;
9080;SDS011;13509;50.760;6.080;2022-08-06T13:16:44;1.80;;;0.70;;
9080;SDS011;13509;50.760;6.080;2022-08-06T13:19:22;1.30;;;0.60;;
9080;SDS011;13509;50.760;6.080;2022-08-06T13:22:00;1.13;;;0.90;;
9080;SDS011;13509;50.760;6.080;2022-08-06T13:24:30;0.60;;;0.50;;
9080;SDS011;13509;50.760;6.080;2022-08-06T13:27:00;2.10;;;0.70;;
9080;SDS011;13509;50.760;6.080;2022-08-06T13:29:33;2.97;;;0.90;;
9080;SDS011;13509;50.760;6.080;2022-08-06T13:32:23;0.90;;;0.73;;
9080;SDS011;13509;50.760;6.080;2022-08-06T13:35:03;1.40;;;0.63;;
9080;SDS011;13509;50.760;6.080;2022-08-06T13:37:50;0.93;;;0.70;;
9080;SDS011;13509;50.760;6.080;2022-08-06T13:40:42;1.33;;;0.60;;
9080;SDS011;13509;50.760;6.080;2022-08-06T13:43:17;1.00;;;0.70;;
9080;SDS011;13509;50.760;6.080;2022-08-06T13:46:06;0.80;;;0.50;;
9080;SDS011;13509;50.760;6.080;2022-08-06T13:48:46;1.40;;;1.00;;
9080;SDS011;13509;50.760;6.080;2022-08-06T13:51:15;2.17;;;0.80;;
9080;SDS011;13509;50.760;6.080;2022-08-06T13:53:54;0.60;;;0.60;;
9080;SDS011;13509;50.760;6.080;2022-08-06T13:56:29;0.87;;;0.80;;
9080;SDS011;13509;50.760;6.080;2022-08-06T13:58:59;2.23;;;0.80;;
9080;SDS011;13509;50.760;6.080;2022-08-06T14:01:30;0.97;;;0.80;;
9080;SDS011;13509;50.760;6.080;2022-08-06T14:04:11;1.40;;;0.87;;
9080;SDS011;13509;50.760;6.080;2022-08-06T14:06:40;1.33;;;0.70;;
9080;SDS011;13509;50.760;6.080;2022-08-06T14:09:13;1.53;;;1.00;;
9080;SDS011;13509;50.760;6.080;2022-08-06T14:11:48;1.40;;;0.90;;
9080;SDS011;13509;50.760;6.080;2022-08-06T14:14:19;2.00;;;0.80;;
9080;SDS011;13509;50.760;6.080;2022-08-06T14:16:49;2.90;;;0.90;;
9080;SDS011;13509;50.760;6.080;2022-08-06T14:19:18;3.60;;;1.00;;
9080;SDS011;13509;50.760;6.080;2022-08-06T14:22:06;1.37;;;1.20;;
9080;SDS011;13509;50.760;6.080;2022-08-06T14:24:37;0.90;;;0.80;;
9080;SDS011;13509;50.760;6.080;2022-08-06T14:27:06;1.20;;;1.00;;
9080;SDS011;13509;50.760;6.080;2022-08-06T14:29:41;1.70;;;1.00;;
9080;SDS011;13509;50.760;6.080;2022-08-06T14:32:29;1.43;;;0.83;;
9080;SDS011;13509;50.760;6.080;2022-08-06T14:34:58;0.90;;;0.70;;
9080;SDS011;13509;50.760;6.080;2022-08-06T14:37:30;4.00;;;0.90;;
9080;SDS011;13509;50.760;6.080;2022-08-06T14:40:19;2.50;;;1.10;;
9080;SDS011;13509;50.760;6.080;2022-08-06T14:43:28;1.67;;;1.00;;
9080;SDS011;13509;50.760;6.080;2022-08-06T14:46:26;1.80;;;1.07;;
9080;SDS011;13509;50.760;6.080;2022-08-06T14:48:56;3.00;;;1.17;;
9080;SDS011;13509;50.760;6.080;2022-08-06T14:51:26;1.87;;;1.10;;
9080;SDS011;13509;50.760;6.080;2022-08-06T14:54:14;2.07;;;1.00;;
9080;SDS011;13509;50.760;6.080;2022-08-06T14:56:45;1.57;;;0.77;;
9080;SDS011;13509;50.760;6.080;2022-08-06T14:59:18;2.40;;;0.97;;
9080;SDS011;13509;50.760;6.080;2022-08-06T15:01:47;2.20;;;1.00;;
9080;SDS011;13509;50.760;6.080;2022-08-06T15:04:15;1.47;;;1.20;;
9080;SDS011;13509;50.760;6.080;2022-08-06T15:06:50;1.63;;;1.10;;
9080;SDS011;13509;50.760;6.080;2022-08-06T15:09:22;1.70;;;1.07;;
9080;SDS011;13509;50.760;6.080;2022-08-06T15:12:12;1.33;;;1.13;;
9080;SDS011;13509;50.760;6.080;2022-08-06T15:15:00;3.07;;;1.00;;
9080;SDS011;13509;50.760;6.080;2022-08-06T15:17:30;1.70;;;1.10;;
9080;SDS011;13509;50.760;6.080;2022-08-06T15:20:19;3.23;;;1.13;;
9080;SDS011;13509;50.760;6.080;2022-08-06T15:22:50;1.37;;;1.20;;
9080;SDS011;13509;50.760;6.080;2022-08-06T15:25:21;1.70;;;1.10;;
9080;SDS011;13509;50.760;6.080;2022-08-06T15:28:11;3.50;;;1.30;;
9080;SDS011;13509;50.760;6.080;2022-08-06T15:30:42;1.70;;;1.00;;
9080;SDS011;13509;50.760;6.080;2022-08-06T15:33:12;2.33;;;1.20;;
9080;SDS011;13509;50.760;6.080;2022-08-06T15:35:41;2.00;;;1.00;;
9080;SDS011;13509;50.760;6.080;2022-08-06T15:38:24;1.60;;;1.00;;
9080;SDS011;13509;50.760;6.080;2022-08-06T15:40:58;2.33;;;1.00;;
9080;SDS011;13509;50.760;6.080;2022-08-06T15:43:28;1.40;;;0.80;;
9080;SDS011;13509;50.760;6.080;2022-08-06T15:46:10;1.87;;;1.20;;
9080;SDS011;13509;50.760;6.080;2022-08-06T15:48:39;1.27;;;0.90;;
9080;SDS011;13509;50.760;6.080;2022-08-06T15:51:21;1.00;;;0.90;;
9080;SDS011;13509;50.760;6.080;2022-08-06T15:53:56;2.27;;;1.00;;
9080;SDS011;13509;50.760;6.080;2022-08-06T15:56:24;1.93;;;0.87;;
9080;SDS011;13509;50.760;6.080;2022-08-06T15:59:06;2.93;;;0.97;;
9080;SDS011;13509;50.760;6.080;2022-08-06T16:01:38;2.43;;;1.20;;
9080;SDS011;13509;50.760;6.080;2022-08-06T16:04:27;2.47;;;1.00;;
9080;SDS011;13509;50.760;6.080;2022-08-06T16:09:48;2.30;;;1.10;;
9080;SDS011;13509;50.760;6.080;2022-08-06T16:12:32;1.87;;;1.00;;
9080;SDS011;13509;50.760;6.080;2022-08-06T16:15:03;1.73;;;1.30;;
9080;SDS011;13509;50.760;6.080;2022-08-06T16:17:37;1.67;;;1.17;;
9080;SDS011;13509;50.760;6.080;2022-08-06T16:20:35;1.73;;;0.90;;
9080;SDS011;13509;50.760;6.080;2022-08-06T16:23:05;5.33;;;1.20;;
9080;SDS011;13509;50.760;6.080;2022-08-06T16:26:00;3.53;;;1.10;;
9080;SDS011;13509;50.760;6.080;2022-08-06T16:28:52;3.23;;;1.10;;
9080;SDS011;13509;50.760;6.080;2022-08-06T16:31:25;2.10;;;1.20;;